createdAt,value
2022-09-25T00:00:00.378Z,157.5
2022-09-25T00:05:00.347Z,136.0
2022-09-25T00:10:00.351Z,112.6
2022-09-25T00:15:00.378Z,112.5
2022-09-25T00:20:00.407Z,90.4
2022-09-25T00:25:00.353Z,90.0
2022-09-25T00:30:00.394Z,70.0
2022-09-25T00:35:00.657Z,45.3
2022-09-25T00:40:00.507Z,45.0
2022-09-25T00:45:00.354Z,45.0
2022-09-25T00:50:00.486Z,45.0
2022-09-25T00:55:00.321Z,45.0
2022-09-25T01:00:00.387Z,45.0
2022-09-25T01:05:00.990Z,45.0
2022-09-25T01:10:00.371Z,45.0
2022-09-25T01:15:00.514Z,45.0
2022-09-25T01:20:00.495Z,45.0
2022-09-25T01:25:00.426Z,45.0
2022-09-25T01:30:00.473Z,45.0
2022-09-25T01:35:00.378Z,45.0
2022-09-25T01:40:00.351Z,45.0
2022-09-25T01:45:00.372Z,45.0
2022-09-25T01:50:00.387Z,45.0
2022-09-25T01:55:00.336Z,35.6
2022-09-25T02:00:00.408Z,21.0
2022-09-25T02:05:00.453Z,41.6
2022-09-25T02:10:00.373Z,44.6
2022-09-25T02:15:00.518Z,43.4
2022-09-25T02:20:00.351Z,43.7
2022-09-25T02:25:00.331Z,39.2
2022-09-25T02:30:00.395Z,41.8
2022-09-25T02:35:00.406Z,37.6
2022-09-25T02:40:00.369Z,40.5
2022-09-25T02:45:00.383Z,24.9
2022-09-25T02:50:00.409Z,39.4
2022-09-25T02:55:00.323Z,28.1
2022-09-25T03:00:00.440Z,34.3
2022-09-25T03:05:00.393Z,31.1
2022-09-25T03:10:00.364Z,44.9
2022-09-25T03:15:00.377Z,45.0
2022-09-25T03:20:00.359Z,45.0
2022-09-25T03:25:00.356Z,45.0
2022-09-25T03:30:00.434Z,67.3
2022-09-25T03:35:00.368Z,67.5
2022-09-25T03:40:00.418Z,67.5
2022-09-25T03:45:00.377Z,67.5
2022-09-25T03:50:00.368Z,67.5
2022-09-25T03:55:00.374Z,67.5
2022-09-25T04:00:00.404Z,67.5
2022-09-25T04:05:00.349Z,67.5
2022-09-25T04:10:00.369Z,67.5
2022-09-25T04:15:00.364Z,67.5
2022-09-25T04:20:00.433Z,67.5
2022-09-25T04:25:00.352Z,67.5
2022-09-25T04:30:00.406Z,67.5
2022-09-25T04:35:00.795Z,67.5
2022-09-25T04:40:00.390Z,67.5
2022-09-25T04:45:00.363Z,67.5
2022-09-25T04:50:00.367Z,67.5
2022-09-25T04:55:00.375Z,67.5
2022-09-25T05:00:00.403Z,67.5
2022-09-25T05:05:00.333Z,130.1
2022-09-25T05:10:00.385Z,135.0
2022-09-25T05:15:00.382Z,135.0
2022-09-25T05:20:00.411Z,238.5
2022-09-25T05:25:00.347Z,240.2
2022-09-25T05:30:00.367Z,247.2
2022-09-25T05:35:00.367Z,247.5
2022-09-25T05:40:00.374Z,269.4
2022-09-25T05:45:07.936Z,304.8
2022-09-25T05:50:00.315Z,314.9
2022-09-25T05:55:00.334Z,315.0
2022-09-25T06:00:00.399Z,315.0
2022-09-25T06:05:00.365Z,315.0
2022-09-25T06:10:00.352Z,292.8
2022-09-25T06:15:00.688Z,302.4
2022-09-25T06:20:00.361Z,314.9
2022-09-25T06:25:00.370Z,315.0
2022-09-25T06:30:00.361Z,324.7
2022-09-25T06:35:00.365Z,337.4
2022-09-25T06:40:00.392Z,63.5
2022-09-25T06:45:00.345Z,67.8
2022-09-25T06:50:00.341Z,68.0
2022-09-25T06:55:00.346Z,68.0
2022-09-25T07:00:02.248Z,75.7
2022-09-25T07:05:00.463Z,67.6
2022-09-25T07:10:00.474Z,110.1
2022-09-25T07:15:00.363Z,108.6
2022-09-25T07:20:00.396Z,141.1
2022-09-25T07:25:00.898Z,145.8
2022-09-25T07:30:00.351Z,116.3
2022-09-25T07:35:00.363Z,69.3
2022-09-25T07:40:00.350Z,153.7
2022-09-25T07:45:00.382Z,114.9
2022-09-25T07:50:00.398Z,71.1
2022-09-25T07:55:00.314Z,64.6
2022-09-25T08:00:00.391Z,60.3
2022-09-25T08:05:00.339Z,67.5
2022-09-25T08:10:00.400Z,60.2
2022-09-25T08:15:00.341Z,71.4
2022-09-25T08:20:00.379Z,107.7
2022-09-25T08:25:00.693Z,70.4
2022-09-25T08:30:00.370Z,87.3
2022-09-25T08:35:00.354Z,176.4
2022-09-25T08:40:00.371Z,180.2
2022-09-25T08:45:22.468Z,121.3
2022-09-25T08:50:00.485Z,135.5
2022-09-25T08:55:00.366Z,156.0
2022-09-25T09:00:03.394Z,176.8
2022-09-25T09:05:00.338Z,179.5
2022-09-25T09:10:00.388Z,264.1
2022-09-25T09:15:00.359Z,73.1
2022-09-25T09:20:00.419Z,170.9
2022-09-25T09:25:00.318Z,68.3
2022-09-25T09:30:06.544Z,160.3
2022-09-25T09:35:07.797Z,166.1
2022-09-25T09:40:00.659Z,206.0
2022-09-25T09:45:00.394Z,38.5
2022-09-25T09:50:00.369Z,286.3
2022-09-25T09:55:00.325Z,168.5
2022-09-25T10:00:06.064Z,201.4
2022-09-25T10:05:00.337Z,272.1
2022-09-25T10:10:00.431Z,201.6
2022-09-25T10:15:00.367Z,162.4
2022-09-25T10:20:00.330Z,239.9
2022-09-25T10:25:00.315Z,174.3
2022-09-25T10:30:00.393Z,132.5
2022-09-25T10:35:00.439Z,166.0
2022-09-25T10:40:00.361Z,347.3
2022-09-25T10:45:00.389Z,188.5
2022-09-25T10:50:00.368Z,248.7
2022-09-25T10:55:00.390Z,292.4
2022-09-25T11:00:00.408Z,248.2
2022-09-25T11:05:00.334Z,299.5
2022-09-25T11:10:00.904Z,217.9
2022-09-25T11:15:00.386Z,196.2
2022-09-25T11:20:00.366Z,193.3
2022-09-25T11:25:01.983Z,207.8
2022-09-25T11:30:00.393Z,276.6
2022-09-25T11:35:00.368Z,286.5
2022-09-25T11:40:00.479Z,276.4
2022-09-25T11:45:00.386Z,326.0
2022-09-25T14:35:00.385Z,223.5
2022-09-25T14:40:00.359Z,226.3
2022-09-25T14:45:00.400Z,190.3
2022-09-25T14:50:00.436Z,196.6
2022-09-25T14:55:00.414Z,230.0
2022-09-25T15:00:00.421Z,229.6
2022-09-25T15:05:00.367Z,228.0
2022-09-25T15:10:00.412Z,208.0
2022-09-25T15:15:00.395Z,203.7
2022-09-25T15:20:00.375Z,231.5
2022-09-25T15:25:00.421Z,217.8
2022-09-25T15:30:00.543Z,226.6
2022-09-25T15:35:00.402Z,234.1
2022-09-25T15:40:00.440Z,219.0
2022-09-25T15:45:00.420Z,221.4
2022-09-25T15:50:00.398Z,211.7
2022-09-25T15:55:00.367Z,218.2
2022-09-25T16:00:00.797Z,237.0
2022-09-25T16:05:00.385Z,203.8
2022-09-25T16:10:00.846Z,206.6
2022-09-25T16:15:00.432Z,198.6
2022-09-25T16:20:00.441Z,199.1
2022-09-25T16:25:00.393Z,210.8
2022-09-25T16:30:05.121Z,203.1
2022-09-25T16:35:00.384Z,204.3
2022-09-25T16:40:00.396Z,194.0
2022-09-25T16:45:00.417Z,216.0
2022-09-25T16:50:00.451Z,220.6
2022-09-25T16:55:01.289Z,189.5
2022-09-25T17:00:00.613Z,200.1
2022-09-25T17:05:00.369Z,202.3
2022-09-25T17:10:00.420Z,246.8
2022-09-25T17:15:00.399Z,232.6
2022-09-25T17:20:00.423Z,225.1
2022-09-25T17:25:00.385Z,203.0
2022-09-25T17:30:00.392Z,202.5
2022-09-25T17:35:00.414Z,201.7
2022-09-25T17:40:00.403Z,202.5
2022-09-25T17:45:00.437Z,202.2
2022-09-25T17:50:00.432Z,281.4
2022-09-25T17:55:00.398Z,314.7
2022-09-25T18:00:00.516Z,292.9
2022-09-25T18:05:00.384Z,246.3
2022-09-25T18:10:00.446Z,247.5
2022-09-25T18:15:00.445Z,232.8
2022-09-25T18:20:00.449Z,202.8
2022-09-25T18:25:00.415Z,201.8
2022-09-25T18:30:00.412Z,206.3
2022-09-25T18:35:00.409Z,194.1
2022-09-25T18:40:00.532Z,200.2
2022-09-25T18:45:00.407Z,207.4
2022-09-25T18:50:00.434Z,214.8
2022-09-25T18:55:00.517Z,224.8
2022-09-25T19:00:00.528Z,219.0
2022-09-25T19:05:00.405Z,207.8
2022-09-25T19:10:00.402Z,200.8
2022-09-25T19:15:00.402Z,200.6
2022-09-25T19:20:00.440Z,199.1
2022-09-25T19:25:00.437Z,223.1
2022-09-25T19:30:00.409Z,208.8
2022-09-25T19:35:00.412Z,197.0
2022-09-25T19:40:00.416Z,207.3
2022-09-25T19:45:00.365Z,202.5
2022-09-25T19:50:00.399Z,197.6
2022-09-25T19:55:00.371Z,202.9
2022-09-25T20:00:00.411Z,202.0
2022-09-25T20:05:00.356Z,202.7
2022-09-25T20:10:00.402Z,206.9
2022-09-25T20:15:00.391Z,221.5
2022-09-25T20:20:00.376Z,198.0
2022-09-25T20:25:00.367Z,210.9
2022-09-25T20:30:00.407Z,195.4
2022-09-25T20:35:00.364Z,213.5
2022-09-25T20:40:00.376Z,217.4
2022-09-25T20:45:00.369Z,215.1
2022-09-25T20:50:00.402Z,209.5
2022-09-25T20:55:00.372Z,199.0
2022-09-25T21:00:00.431Z,194.5
2022-09-25T21:05:00.345Z,197.2
2022-09-25T21:10:00.379Z,198.5
2022-09-25T21:15:00.369Z,206.1
2022-09-25T21:20:00.416Z,195.3
2022-09-25T21:25:00.343Z,197.4
2022-09-25T21:30:00.402Z,215.3
2022-09-25T21:35:00.334Z,192.3
2022-09-25T21:40:00.393Z,197.8
2022-09-25T21:45:00.371Z,200.1
2022-09-25T21:50:00.381Z,200.7
2022-09-25T21:55:00.343Z,204.9
2022-09-25T22:00:00.493Z,204.6
2022-09-25T22:05:00.349Z,211.2
2022-09-25T22:10:00.453Z,230.1
2022-09-25T22:15:00.404Z,227.0
2022-09-25T22:20:05.993Z,202.4
2022-09-25T22:25:00.355Z,232.6
2022-09-25T22:30:00.458Z,209.2
2022-09-25T22:35:00.329Z,233.9
2022-09-25T22:40:00.382Z,232.1
2022-09-25T22:45:00.363Z,244.3
2022-09-25T22:50:00.649Z,248.0
2022-09-25T22:55:00.362Z,241.5
2022-09-25T23:00:00.786Z,234.4
2022-09-25T23:05:07.112Z,237.1
2022-09-25T23:10:00.372Z,233.1
2022-09-25T23:15:00.375Z,236.5
2022-09-25T23:20:00.614Z,236.0
2022-09-25T23:25:00.350Z,226.8
2022-09-25T23:30:00.395Z,225.6
2022-09-25T23:35:00.332Z,229.2
2022-09-25T23:40:00.369Z,196.8
2022-09-25T23:45:00.383Z,207.5
2022-09-25T23:50:05.280Z,222.9
2022-09-25T23:55:00.346Z,237.8
